Time;durP1;ratioP1;P1;durP2;ratioP2;P2;SDS_P1;SDS_P2;PMS_P1;PMS_P2;Temp;Humidity;BMP_temperature;BMP_pressure;BME280_temperature;BME280_humidity;BME280_pressure;Samples;Min_cycle;Max_cycle;Signal;HPM_P1;HPM_P2
2023/12/20 05:30:46;;;;;;;;;3.75;2.00;;;;;16.08;46.65;101943.50;5031842;28;45921;-77
2023/12/20 05:33:11;;;;;;;;;0.75;0.75;;;;;16.03;46.77;101941.03;5023465;28;45465;-79
2023/12/20 05:35:36;;;;;;;;;2.00;1.00;;;;;15.98;46.53;101929.59;5035997;28;54793;-80
2023/12/20 05:38:02;;;;;;;;;2.75;1.00;;;;;16.14;46.37;101949.50;5036188;28;53346;-81
2023/12/20 05:40:27;;;;;;;;;1.50;1.50;;;;;15.99;46.52;101927.75;5038273;28;45941;-80
2023/12/20 05:42:52;;;;;;;;;1.00;1.00;;;;;16.06;46.84;101965.25;5049102;28;45478;-81
2023/12/20 05:45:18;;;;;;;;;3.00;0.00;;;;;15.85;46.83;101912.19;5036214;28;45833;-80
2023/12/20 05:47:43;;;;;;;;;2.75;1.00;;;;;15.95;46.68;101962.19;5036262;28;45532;-80
2023/12/20 05:50:09;;;;;;;;;3.00;2.00;;;;;16.02;46.60;101960.94;5051380;28;45405;-79
2023/12/20 05:52:34;;;;;;;;;2.00;2.00;;;;;15.88;46.85;101947.22;5051552;28;45488;-80
2023/12/20 05:55:01;;;;;;;;;1.00;1.00;;;;;15.63;47.24;101930.44;5036195;28;45562;-81
2023/12/20 05:57:26;;;;;;;;;1.00;1.00;;;;;15.70;47.02;101958.91;5036271;28;46447;-80
2023/12/20 05:59:52;;;;;;;;;2.00;1.00;;;;;15.76;46.67;101951.38;5055943;28;45241;-81
2023/12/20 06:02:17;;;;;;;;;2.50;1.00;;;;;16.03;46.44;101976.22;5058733;28;45267;-80
2023/12/20 06:04:43;;;;;;;;;3.25;0.75;;;;;16.00;46.55;101956.53;5069202;28;47734;-81
2023/12/20 06:07:11;;;;;;;;;0.00;0.00;;;;;15.88;46.79;101958.91;5068671;28;46610;-80
2023/12/20 06:09:37;;;;;;;;;1.50;0.50;;;;;16.01;46.57;101994.34;5049098;28;45321;-81
2023/12/20 06:12:02;;;;;;;;;2.00;1.00;;;;;15.86;46.48;101965.34;5056965;28;45352;-82
2023/12/20 06:14:27;;;;;;;;;2.75;1.00;;;;;16.05;46.45;102001.38;5056224;28;45478;-80
2023/12/20 06:16:53;;;;;;;;;0.50;0.50;;;;;15.97;46.47;101957.59;5055711;28;45918;-81
2023/12/20 06:19:18;;;;;;;;;3.50;1.00;;;;;15.91;46.13;101938.94;5055351;28;53462;-79
2023/12/20 06:21:43;;;;;;;;;1.75;1.00;;;;;16.17;46.01;101979.09;5056040;28;45496;-81
2023/12/20 06:24:09;;;;;;;;;1.25;1.00;;;;;15.99;46.66;101990.81;5055660;28;45693;-80
2023/12/20 06:26:34;;;;;;;;;1.00;1.00;;;;;15.81;46.71;101967.41;5055835;28;45406;-78
2023/12/20 06:29:00;;;;;;;;;1.50;1.00;;;;;15.66;47.07;101976.22;5042637;28;45447;-81
2023/12/20 06:31:25;;;;;;;;;1.00;1.00;;;;;15.55;46.95;101948.84;5034896;28;45241;-82
2023/12/20 06:33:57;;;;;;;;;1.00;1.00;;;;;15.73;47.27;101951.56;5034696;28;45362;-79
2023/12/20 06:36:22;;;;;;;;;3.50;1.00;;;;;16.03;46.52;101978.91;5035394;28;45528;-80
2023/12/20 06:38:48;;;;;;;;;2.00;2.00;;;;;16.08;46.40;101965.16;5034223;28;45442;-79
2023/12/20 06:41:14;;;;;;;;;3.00;2.00;;;;;16.04;46.41;101964.44;5039953;28;50004;-76
2023/12/20 06:43:40;;;;;;;;;3.00;1.00;;;;;16.14;46.31;101976.56;5023719;28;46716;-77
2023/12/20 06:46:06;;;;;;;;;2.00;1.00;;;;;16.00;46.74;101972.78;5029220;28;48315;-78
2023/12/20 06:48:32;;;;;;;;;1.00;1.00;;;;;15.96;46.53;101946.84;5035094;28;46411;-75
2023/12/20 06:50:59;;;;;;;;;3.00;1.00;;;;;16.06;46.36;101962.53;5035667;28;45534;-78
2023/12/20 06:53:24;;;;;;;;;2.00;1.00;;;;;15.83;47.02;101992.50;5034874;28;45403;-79
2023/12/20 06:55:52;;;;;;;;;1.75;1.00;;;;;15.72;47.59;102000.28;5017206;28;46364;-78
2023/12/20 06:58:17;;;;;;;;;4.25;2.00;;;;;15.65;47.58;101994.25;5016261;28;45669;-73
2023/12/20 07:00:42;;;;;;;;;2.00;0.25;;;;;15.59;47.82;101991.84;5034916;28;48887;-75
2023/12/20 07:03:09;;;;;;;;;1.00;1.00;;;;;15.49;48.19;101985.97;5033924;28;56252;-77
2023/12/20 07:05:34;;;;;;;;;3.25;3.00;;;;;15.46;48.34;101993.34;5035609;28;45293;-75
2023/12/20 07:07:59;;;;;;;;;3.50;2.00;;;;;15.65;47.89;101988.84;5035221;28;45494;-76
2023/12/20 07:10:25;;;;;;;;;0.75;0.75;;;;;15.69;47.72;101992.31;5035198;28;45317;-76
2023/12/20 07:12:51;;;;;;;;;4.25;2.75;;;;;15.65;47.50;101988.00;5034699;28;50986;-78
2023/12/20 07:15:16;;;;;;;;;2.50;2.50;;;;;15.55;48.02;101992.97;5035016;28;45289;-74
2023/12/20 07:17:42;;;;;;;;;1.00;1.00;;;;;15.55;47.88;101992.97;5034526;28;45359;-74
2023/12/20 07:20:10;;;;;;;;;3.50;1.75;;;;;15.68;47.60;101999.53;5034991;28;45241;-75
2023/12/20 07:22:36;;;;;;;;;1.75;1.75;;;;;15.74;47.24;101984.84;5034468;28;45435;-75
2023/12/20 07:25:01;;;;;;;;;2.00;2.00;;;;;15.74;47.35;101983.00;5034444;28;45362;-76
2023/12/20 07:27:27;;;;;;;;;7.00;1.50;;;;;15.85;47.45;102018.53;5034577;28;45331;-74
2023/12/20 07:29:52;;;;;;;;;3.00;2.00;;;;;15.77;47.41;102020.75;5035118;28;45396;-73
2023/12/20 07:32:19;;;;;;;;;3.00;1.00;;;;;15.73;47.60;101981.28;5029934;28;45466;-77
2023/12/20 07:34:45;;;;;;;;;2.00;2.00;;;;;15.92;47.12;102010.13;5052126;28;45485;-77
2023/12/20 07:37:11;;;;;;;;;3.00;2.00;;;;;15.80;47.23;102000.78;5045438;28;45717;-74
2023/12/20 07:39:37;;;;;;;;;1.00;1.00;;;;;15.88;47.27;102012.13;5043601;28;45623;-76
2023/12/20 07:42:03;;;;;;;;;3.75;2.25;;;;;15.95;47.15;102001.88;5045221;28;45464;-76
2023/12/20 07:44:28;;;;;;;;;1.75;1.50;;;;;16.07;47.20;102013.00;5050796;28;46304;-76
2023/12/20 07:46:53;;;;;;;;;2.50;1.00;;;;;16.24;46.96;102026.59;5054662;28;52083;-75
2023/12/20 07:49:19;;;;;;;;;2.25;1.00;;;;;16.25;46.66;102028.31;5049119;28;45361;-75
2023/12/20 07:51:44;;;;;;;;;3.75;2.00;;;;;16.25;46.69;102025.59;5051225;28;45467;-75
2023/12/20 07:54:09;;;;;;;;;3.00;3.00;;;;;16.17;47.03;102032.34;5040126;28;45624;-75
2023/12/20 07:56:35;;;;;;;;;3.00;1.00;;;;;15.97;47.34;102029.75;5055719;28;45299;-74
2023/12/20 07:59:01;;;;;;;;;8.50;3.00;;;;;15.90;47.66;102026.47;5058106;28;45364;-76
2023/12/20 08:01:26;;;;;;;;;3.25;2.00;;;;;15.95;47.54;102032.50;5057768;28;45329;-74
2023/12/20 08:03:52;;;;;;;;;5.00;1.00;;;;;15.75;47.84;102028.03;5057123;28;45442;-74
2023/12/20 08:06:17;;;;;;;;;2.75;1.50;;;;;15.76;47.66;102005.47;5057653;28;45512;-76
2023/12/20 08:08:43;;;;;;;;;2.50;2.00;;;;;15.92;47.59;102010.13;5051639;28;45499;-75
2023/12/20 08:11:08;;;;;;;;;2.50;2.50;;;;;15.97;47.32;102013.50;5030925;28;46387;-75
2023/12/20 08:13:33;;;;;;;;;2.75;2.00;;;;;16.09;46.78;102011.06;5050194;28;45249;-74
2023/12/20 08:15:59;;;;;;;;;2.50;2.00;;;;;16.09;47.26;102018.31;5048139;28;45374;-73
2023/12/20 08:18:25;;;;;;;;;3.50;3.00;;;;;16.06;46.90;102005.84;5051026;28;45651;-73
2023/12/20 08:20:52;;;;;;;;;2.50;2.00;;;;;16.21;47.04;102024.00;5045156;28;46003;-73
2023/12/20 08:23:20;;;;;;;;;4.00;2.00;;;;;16.15;47.12;102029.75;5049035;28;46314;-74
2023/12/20 08:25:46;;;;;;;;;8.75;4.00;;;;;16.17;46.48;102016.09;5048842;28;45467;-76
2023/12/20 08:28:12;;;;;;;;;3.00;1.25;;;;;16.17;47.06;102022.41;5050160;28;45360;-76
2023/12/20 08:30:38;;;;;;;;;4.00;4.00;;;;;16.14;46.73;102014.44;5047712;28;45395;-74
2023/12/20 08:33:04;;;;;;;;;7.00;2.75;;;;;16.12;46.65;102010.94;5014875;28;46674;-74
2023/12/20 08:35:30;;;;;;;;;2.25;2.25;;;;;16.19;46.90;102009.69;5028094;28;45511;-77
2023/12/20 08:37:56;;;;;;;;;1.00;1.00;;;;;16.04;47.07;102010.44;5027672;28;45591;-74
2023/12/20 08:40:21;;;;;;;;;4.00;4.00;;;;;16.09;47.32;102011.06;5026049;28;45282;-77
2023/12/20 08:42:46;;;;;;;;;5.25;3.25;;;;;16.15;46.96;102013.50;5025017;28;46033;-72
2023/12/20 08:45:12;;;;;;;;;3.00;3.00;;;;;15.95;47.43;102010.00;5015420;28;45942;-74
2023/12/20 08:47:38;;;;;;;;;3.00;3.00;;;;;15.92;47.50;102002.00;5025176;28;45643;-74
2023/12/20 08:50:04;;;;;;;;;8.50;3.00;;;;;16.00;47.37;102021.47;5025495;28;45535;-73
2023/12/20 08:52:29;;;;;;;;;2.00;2.00;;;;;15.88;47.76;102022.94;5025008;28;45456;-74
2023/12/20 08:54:55;;;;;;;;;5.25;2.75;;;;;15.97;47.54;102017.09;5026496;28;45479;-76
2023/12/20 08:57:21;;;;;;;;;6.00;3.75;;;;;16.11;47.24;102025.41;5027119;28;45726;-76
2023/12/20 08:59:47;;;;;;;;;7.00;3.50;;;;;16.14;47.33;102033.38;5026402;28;45627;-74
2023/12/20 09:02:14;;;;;;;;;6.00;3.00;;;;;15.99;47.27;102044.91;5024900;28;46220;-74
2023/12/20 09:04:39;;;;;;;;;2.00;2.00;;;;;16.18;47.50;102048.50;5005844;28;45887;-74
2023/12/20 09:07:05;;;;;;;;;4.00;4.00;;;;;16.12;47.39;102046.09;5019070;28;45644;-75
2023/12/20 09:09:32;;;;;;;;;7.50;3.50;;;;;16.01;47.57;102015.97;5019177;28;45481;-73
2023/12/20 09:11:57;;;;;;;;;7.00;5.00;;;;;15.94;47.58;102010.94;5013091;28;45596;-73
2023/12/20 09:14:23;;;;;;;;;6.75;6.25;;;;;16.15;47.46;102031.56;5014909;28;45348;-73
2023/12/20 09:16:50;;;;;;;;;7.25;3.00;;;;;16.15;47.54;102031.56;5016654;28;45225;-75
2023/12/20 09:19:15;;;;;;;;;5.25;3.75;;;;;16.40;47.10;102032.13;5016384;28;45520;-74
2023/12/20 09:21:41;;;;;;;;;4.00;4.00;;;;;16.31;47.42;102020.84;5015563;28;56165;-75
2023/12/20 09:24:06;;;;;;;;;3.00;3.00;;;;;16.47;46.91;102016.44;5016025;28;45423;-74
2023/12/20 09:26:31;;;;;;;;;3.00;2.00;;;;;16.58;46.76;102022.19;5014869;28;45607;-74
2023/12/20 09:28:57;;;;;;;;;3.50;2.25;;;;;16.56;46.65;102015.97;5016272;28;55594;-73
2023/12/20 09:31:22;;;;;;;;;7.00;5.50;;;;;16.68;46.81;102022.59;5012055;28;58877;-72
2023/12/20 09:33:47;;;;;;;;;6.25;4.00;;;;;16.54;46.59;101998.91;5021389;28;45528;-74
2023/12/20 09:36:13;;;;;;;;;3.00;3.00;;;;;16.59;46.44;102000.44;5025895;28;45396;-71
2023/12/20 09:38:39;;;;;;;;;3.25;3.25;;;;;16.69;46.74;102016.25;5035602;28;45325;-76
2023/12/20 09:41:05;;;;;;;;;4.25;3.75;;;;;16.81;46.32;102031.88;5035392;28;45348;-74
2023/12/20 09:43:33;;;;;;;;;9.00;3.50;;;;;16.55;47.01;102009.69;5037859;28;45427;-75
2023/12/20 09:46:02;;;;;;;;;3.75;3.50;;;;;16.75;46.75;102013.25;5047602;28;45444;-73
2023/12/20 09:48:27;;;;;;;;;3.75;2.00;;;;;16.48;47.08;102020.91;5054322;28;46468;-74
2023/12/20 09:50:53;;;;;;;;;3.50;2.50;;;;;16.73;46.90;102031.41;5055115;28;46056;-74
2023/12/20 09:53:19;;;;;;;;;5.25;4.00;;;;;16.72;46.59;102016.09;5052845;28;46919;-74
2023/12/20 09:55:45;;;;;;;;;4.00;3.25;;;;;16.82;46.33;102033.63;5056351;28;45339;-73
2023/12/20 09:58:10;;;;;;;;;8.75;4.75;;;;;16.83;46.37;102036.28;5056173;28;45271;-76
2023/12/20 10:00:35;;;;;;;;;3.00;3.00;;;;;16.99;46.21;102045.34;5042084;28;47767;-74
2023/12/20 10:03:03;;;;;;;;;2.75;2.75;;;;;17.16;46.24;102040.88;5055200;28;55685;-73
2023/12/20 10:05:31;;;;;;;;;8.00;3.00;;;;;17.25;45.78;102037.69;5048789;28;45229;-75
2023/12/20 10:07:57;;;;;;;;;7.25;3.25;;;;;17.29;45.64;102032.00;5027462;28;45425;-77
2023/12/20 10:10:22;;;;;;;;;7.00;3.00;;;;;17.26;45.71;102021.34;5042877;28;45521;-74
2023/12/20 10:13:10;;;;;;;;;4.00;4.00;;;;;17.35;45.82;102039.81;5055704;28;45478;-74
2023/12/20 10:15:36;;;;;;;;;2.75;2.75;;;;;17.49;45.40;102030.06;5052105;28;45387;-75
2023/12/20 10:18:03;;;;;;;;;3.25;3.00;;;;;17.70;44.97;102021.66;5046366;28;45544;-75
2023/12/20 10:20:29;;;;;;;;;3.50;3.00;;;;;17.89;44.59;102029.66;5055319;28;47185;-73
2023/12/20 10:22:59;;;;;;;;;3.00;3.00;;;;;17.89;44.91;102026.06;5055437;28;45289;-75
2023/12/20 10:25:25;;;;;;;;;3.75;3.25;;;;;17.82;45.13;102022.81;5055930;28;45447;-78
2023/12/20 10:28:09;;;;;;;;;9.25;5.50;;;;;17.92;45.08;102015.03;5055459;28;45481;-73
2023/12/20 10:30:34;;;;;;;;;6.75;3.75;;;;;17.84;44.89;102007.34;5055367;28;45490;-75
2023/12/20 10:33:01;;;;;;;;;3.50;3.25;;;;;17.87;44.03;102004.44;5055275;28;45502;-74
2023/12/20 10:35:26;;;;;;;;;2.75;2.00;;;;;17.54;45.25;102001.72;5055486;28;45433;-74
2023/12/20 10:37:56;;;;;;;;;5.50;4.25;;;;;17.75;44.96;101991.56;5055190;28;45446;-76
2023/12/20 10:40:22;;;;;;;;;4.00;2.50;;;;;17.85;44.81;101986.50;5037328;28;45400;-74
2023/12/20 10:42:50;;;;;;;;;6.25;3.50;;;;;17.68;45.02;101988.34;5041974;28;45349;-74
2023/12/20 10:45:16;;;;;;;;;4.50;3.00;;;;;17.92;44.81;101994.22;5035407;28;45461;-75
2023/12/20 10:47:46;;;;;;;;;9.00;3.50;;;;;17.77;45.22;102006.81;5055331;28;45378;-73
2023/12/20 10:50:11;;;;;;;;;3.75;3.75;;;;;17.67;45.23;102001.97;5036966;28;48480;-74
2023/12/20 10:52:37;;;;;;;;;4.00;4.00;;;;;17.85;44.80;101987.38;5055280;28;45455;-76
2023/12/20 10:55:03;;;;;;;;;3.25;2.00;;;;;18.07;44.27;102001.47;5055535;28;45465;-75
2023/12/20 10:57:29;;;;;;;;;4.00;2.00;;;;;17.86;44.87;101990.97;5055322;28;45554;-74
2023/12/20 10:59:59;;;;;;;;;4.25;1.25;;;;;18.03;44.53;101980.88;5054793;28;45371;-75
2023/12/20 11:02:25;;;;;;;;;4.00;2.00;;;;;18.28;44.46;101990.34;5055040;28;45542;-75
2023/12/20 11:04:59;;;;;;;;;3.00;2.00;;;;;18.43;43.62;101971.31;5054927;28;45340;-74
2023/12/20 11:07:38;;;;;;;;;2.00;2.00;;;;;18.33;43.98;101982.81;5055178;28;45499;-77
2023/12/20 11:10:17;;;;;;;;;2.50;2.25;;;;;18.13;44.07;101970.38;5055193;28;46066;-77
2023/12/20 11:12:48;;;;;;;;;4.25;2.00;;;;;18.09;44.28;101968.81;5055206;28;45476;-74
2023/12/20 11:15:15;;;;;;;;;8.00;3.50;;;;;17.98;44.43;101955.00;5055109;28;45372;-76
2023/12/20 11:17:40;;;;;;;;;3.50;3.50;;;;;17.86;44.47;101947.56;5053407;28;46938;-75
2023/12/20 11:20:10;;;;;;;;;8.00;4.00;;;;;18.19;44.50;101958.31;5038504;28;45804;-77
2023/12/20 11:22:38;;;;;;;;;7.50;3.00;;;;;18.24;44.10;101948.03;5041310;28;45663;-75
2023/12/20 11:25:06;;;;;;;;;5.25;4.00;;;;;18.18;44.19;101962.00;5041675;28;45414;-75
2023/12/20 11:27:32;;;;;;;;;3.00;3.00;;;;;18.41;43.81;101950.63;5040662;28;45474;-73
2023/12/20 11:29:58;;;;;;;;;5.00;4.00;;;;;18.48;43.66;101952.91;5034318;28;45530;-73
2023/12/20 11:32:27;;;;;;;;;7.00;2.50;;;;;18.59;43.59;101951.41;5037781;28;45508;-74
2023/12/20 11:34:58;;;;;;;;;3.75;2.75;;;;;18.38;43.54;101929.09;5039280;28;45523;-74
2023/12/20 11:37:30;;;;;;;;;2.75;2.50;;;;;18.56;43.32;101937.97;5035461;28;45204;-76
2023/12/20 11:39:56;;;;;;;;;2.75;2.50;;;;;18.62;43.41;101938.53;5039148;28;45521;-75
2023/12/20 11:42:22;;;;;;;;;2.25;2.00;;;;;18.82;42.83;101935.47;5040300;28;45431;-74
2023/12/20 11:44:47;;;;;;;;;4.50;4.00;;;;;18.92;42.60;101924.91;5040686;28;45396;-74
2023/12/20 11:47:15;;;;;;;;;3.00;2.50;;;;;18.88;42.45;101926.06;5043421;28;45486;-74
2023/12/20 11:49:41;;;;;;;;;2.25;0.50;;;;;18.81;41.91;101922.84;5037807;28;46182;-75
2023/12/20 11:52:06;;;;;;;;;2.75;2.75;;;;;19.05;42.49;101942.22;5037225;28;45431;-77
2023/12/20 11:54:31;;;;;;;;;2.75;2.75;;;;;18.99;42.18;101934.41;5039706;28;52301;-74
2023/12/20 11:56:57;;;;;;;;;3.00;1.75;;;;;19.34;42.18;101931.31;5039119;28;45516;-73
2023/12/20 11:59:23;;;;;;;;;5.25;3.75;;;;;19.15;41.92;101907.16;5037261;28;46056;-75
2023/12/20 12:01:50;;;;;;;;;2.00;2.00;;;;;19.47;42.03;101913.28;5036645;28;45419;-75
2023/12/20 12:04:17;;;;;;;;;5.25;4.00;;;;;19.53;41.42;101915.63;5042612;28;45327;-75
2023/12/20 12:06:42;;;;;;;;;6.75;5.75;;;;;19.55;41.60;101914.56;5033589;28;45300;-75
2023/12/20 12:09:08;;;;;;;;;8.25;3.75;;;;;19.36;41.90;101943.00;5033990;28;46298;-73
2023/12/20 12:11:33;;;;;;;;;4.00;4.00;;;;;19.25;42.09;101924.63;5035286;28;45423;-72
2023/12/20 12:13:59;;;;;;;;;5.25;3.25;;;;;19.16;42.62;101923.38;5053927;28;45392;-76
2023/12/20 12:16:25;;;;;;;;;5.00;2.00;;;;;19.10;42.30;101933.75;5033943;28;46306;-78
2023/12/20 12:19:00;;;;;;;;;6.00;3.00;;;;;18.86;42.90;101941.59;5033189;28;46317;-76
2023/12/20 12:21:25;;;;;;;;;2.00;2.00;;;;;18.92;43.15;101934.91;5033617;28;45434;-75
2023/12/20 12:23:51;;;;;;;;;3.00;3.00;;;;;18.86;43.03;101933.44;5034253;28;45590;-76
2023/12/20 12:26:16;;;;;;;;;2.50;2.00;;;;;18.75;43.63;101936.81;5033649;28;45281;-74
2023/12/20 12:28:42;;;;;;;;;3.75;0.75;;;;;18.42;44.35;101917.97;5038330;28;46061;-74
2023/12/20 12:31:12;;;;;;;;;2.50;2.25;;;;;18.64;44.00;101925.72;5037367;28;45320;-75
2023/12/20 12:33:38;;;;;;;;;7.25;4.00;;;;;18.23;45.04;101930.88;5039738;28;45362;-75
2023/12/20 12:36:06;;;;;;;;;3.00;3.00;;;;;18.40;45.48;101925.31;5038424;28;45303;-76
2023/12/20 12:38:32;;;;;;;;;4.00;4.00;;;;;18.14;45.61;101909.72;5036162;28;45423;-78
2023/12/20 12:40:58;;;;;;;;;3.00;3.00;;;;;18.35;45.82;101897.59;5035273;28;45516;-76
2023/12/20 12:43:24;;;;;;;;;3.00;3.00;;;;;18.49;45.82;101905.75;5013513;28;45467;-78
2023/12/20 12:45:49;;;;;;;;;6.75;3.00;;;;;18.54;45.57;101892.78;5036498;28;45469;-80
2023/12/20 12:48:15;;;;;;;;;4.25;3.00;;;;;18.57;45.26;101877.28;5036841;28;46211;-78
2023/12/20 12:50:40;;;;;;;;;2.00;2.00;;;;;18.52;45.16;101870.28;5037006;28;45457;-80
2023/12/20 12:53:06;;;;;;;;;7.75;3.75;;;;;18.54;45.48;101895.47;5052733;28;45316;-79
2023/12/20 12:55:32;;;;;;;;;4.00;3.75;;;;;18.29;45.54;101869.94;5037235;28;45897;-82
2023/12/20 12:57:57;;;;;;;;;2.75;2.75;;;;;18.21;46.23;101874.94;5044624;28;45840;-80
2023/12/20 13:00:23;;;;;;;;;2.25;2.25;;;;;18.06;46.35;101866.75;5040299;28;45433;-81
2023/12/20 13:02:48;;;;;;;;;3.25;3.00;;;;;18.29;45.98;101848.22;5044351;28;45304;-79
2023/12/20 13:05:13;;;;;;;;;3.00;3.00;;;;;18.54;45.80;101860.19;5046688;28;45401;-78
2023/12/20 13:07:39;;;;;;;;;6.00;4.00;;;;;18.66;45.65;101855.88;5039734;28;48063;-80
2023/12/20 13:10:08;;;;;;;;;5.50;2.00;;;;;18.63;45.65;101831.59;5039767;28;45485;-78
2023/12/20 13:12:34;;;;;;;;;3.25;3.00;;;;;18.76;45.66;101843.47;5036725;28;45524;-78
2023/12/20 13:14:59;;;;;;;;;7.50;3.00;;;;;18.65;45.43;101824.25;5038364;28;45510;-76
2023/12/20 13:17:25;;;;;;;;;3.50;3.50;;;;;19.08;45.32;101838.72;5041675;28;46128;-79
2023/12/20 13:19:50;;;;;;;;;2.25;2.00;;;;;19.29;44.79;101828.31;5032711;28;45550;-75
2023/12/20 13:22:15;;;;;;;;;2.00;2.00;;;;;19.36;44.63;101821.50;5036619;28;45359;-77
2023/12/20 13:24:41;;;;;;;;;3.50;2.00;;;;;19.48;44.20;101814.41;5036831;28;45353;-76
2023/12/20 13:27:06;;;;;;;;;4.00;4.00;;;;;19.49;44.27;101811.56;5040384;28;46176;-77
2023/12/20 13:29:31;;;;;;;;;3.00;3.00;;;;;19.46;44.14;101806.31;5038933;28;45352;-76
2023/12/20 13:31:57;;;;;;;;;5.25;3.75;;;;;19.75;43.72;101823.44;5042240;28;45510;-75
2023/12/20 13:34:23;;;;;;;;;5.25;3.25;;;;;19.65;43.43;101797.81;5043887;28;45316;-76
2023/12/20 13:36:50;;;;;;;;;3.00;3.00;;;;;19.58;43.63;101812.81;5041557;28;47887;-77
2023/12/20 13:39:16;;;;;;;;;5.50;2.00;;;;;19.65;43.57;101797.81;5042421;28;45509;-75
2023/12/20 13:41:42;;;;;;;;;0.00;0.00;;;;;19.73;43.75;101803.66;5040016;28;45429;-78
2023/12/20 13:44:07;;;;;;;;;2.00;0.25;;;;;19.35;44.39;101798.00;5034969;28;45355;-75
2023/12/20 13:46:33;;;;;;;;;2.00;2.00;;;;;19.43;43.69;101798.34;5035727;28;45432;-76
2023/12/20 13:48:58;;;;;;;;;4.25;2.75;;;;;19.17;44.12;101783.75;5035871;28;45355;-76
2023/12/20 13:51:24;;;;;;;;;1.50;1.50;;;;;19.27;44.23;101782.19;5035360;28;45307;-76
2023/12/20 13:53:49;;;;;;;;;2.50;1.00;;;;;19.16;44.05;101776.56;5035325;28;45394;-74
2023/12/20 13:56:15;;;;;;;;;2.75;2.00;;;;;19.28;44.26;101764.91;5042221;28;47567;-76
2023/12/20 13:58:46;;;;;;;;;2.50;2.50;;;;;19.46;43.93;101772.81;5034568;28;45566;-75
2023/12/20 14:01:11;;;;;;;;;2.00;2.00;;;;;19.48;43.40;101754.59;5040784;28;45540;-76
2023/12/20 14:03:37;;;;;;;;;1.50;1.50;;;;;19.61;43.20;101756.38;5036655;28;45389;-74
2023/12/20 14:06:03;;;;;;;;;3.00;1.00;;;;;19.50;42.91;101752.59;5018291;28;46404;-76
2023/12/20 14:08:29;;;;;;;;;1.00;1.00;;;;;19.31;43.14;101739.31;5036604;28;45546;-75
2023/12/20 14:10:54;;;;;;;;;3.25;1.00;;;;;19.33;43.29;101736.50;5034513;28;45502;-77
2023/12/20 14:13:20;;;;;;;;;1.00;1.00;;;;;19.15;43.70;101739.47;5043682;28;45446;-75
2023/12/20 14:15:46;;;;;;;;;2.00;0.50;;;;;18.89;44.56;101745.75;5035283;28;46098;-75
2023/12/20 14:18:14;;;;;;;;;0.00;0.00;;;;;18.44;45.51;101733.25;5031882;28;45397;-75
2023/12/20 14:20:42;;;;;;;;;6.00;1.25;;;;;18.78;45.18;101737.44;5051509;28;45458;-75
2023/12/20 14:23:07;;;;;;;;;1.00;1.00;;;;;18.76;45.05;101726.66;5035687;28;45510;-75
2023/12/20 14:25:33;;;;;;;;;2.00;0.00;;;;;19.07;45.03;101736.38;5035861;28;45311;-75
2023/12/20 14:27:59;;;;;;;;;3.75;1.25;;;;;19.06;45.03;101734.63;5035314;28;45506;-75
2023/12/20 14:30:25;;;;;;;;;2.25;1.00;;;;;19.12;44.83;101744.25;5034315;28;45431;-75
2023/12/20 14:32:50;;;;;;;;;3.00;1.00;;;;;19.03;44.94;101739.44;5035114;28;45337;-75
2023/12/20 14:35:22;;;;;;;;;0.00;0.00;;;;;19.18;44.83;101730.25;5035500;28;52321;-75
2023/12/20 14:37:47;;;;;;;;;0.75;0.00;;;;;19.20;44.18;101720.16;5044116;28;45466;-75
2023/12/20 14:40:16;;;;;;;;;4.25;4.00;;;;;19.20;44.64;101726.47;5044616;28;45977;-76
2023/12/20 14:42:44;;;;;;;;;3.00;1.75;;;;;19.12;44.54;101726.09;5047663;28;45732;-75
2023/12/20 14:45:09;;;;;;;;;4.50;4.50;;;;;19.09;44.97;101714.56;5015341;28;48022;-74
2023/12/20 14:47:38;;;;;;;;;3.25;1.50;;;;;19.12;44.30;101717.06;5035609;28;45391;-74
2023/12/20 14:50:04;;;;;;;;;5.50;3.50;;;;;19.29;44.34;101716.81;5036249;28;45477;-77
2023/12/20 14:52:48;;;;;;;;;2.00;2.00;;;;;19.18;44.35;101714.81;5041919;28;47140;-77
2023/12/20 14:55:17;;;;;;;;;1.00;1.00;;;;;19.40;43.71;101710.66;5038821;28;45355;-76
2023/12/20 14:57:42;;;;;;;;;1.00;1.00;;;;;19.40;43.86;101707.94;5035389;28;45181;-75
2023/12/20 15:00:08;;;;;;;;;3.00;3.00;;;;;19.13;44.21;101713.38;5035921;28;45366;-74
2023/12/20 15:02:33;;;;;;;;;2.25;2.25;;;;;19.12;44.37;101708.91;5039236;28;45482;-74
2023/12/20 15:04:59;;;;;;;;;4.00;1.25;;;;;19.14;44.13;101704.25;5029216;28;46455;-74
2023/12/20 15:07:25;;;;;;;;;6.00;2.00;;;;;19.41;43.95;101723.28;5040656;28;45360;-75
2023/12/20 15:09:50;;;;;;;;;4.00;0.75;;;;;18.98;44.81;101707.09;5041733;28;45316;-73
2023/12/20 15:12:16;;;;;;;;;3.25;2.50;;;;;19.12;44.31;101714.38;5040913;28;49948;-73
2023/12/20 15:14:41;;;;;;;;;3.00;0.00;;;;;19.13;44.51;101718.81;5038481;28;45395;-74
2023/12/20 15:17:06;;;;;;;;;4.50;1.00;;;;;19.11;44.25;101727.06;5039158;28;45355;-75
2023/12/20 15:19:32;;;;;;;;;4.00;1.00;;;;;19.17;44.25;101723.94;5039691;28;45540;-74
2023/12/20 15:21:59;;;;;;;;;1.00;1.00;;;;;19.40;44.00;101727.84;5042083;28;47110;-74
2023/12/20 15:24:37;;;;;;;;;1.75;1.75;;;;;19.45;43.44;101716.66;5040971;28;46385;-73
2023/12/20 15:27:02;;;;;;;;;2.00;2.00;;;;;19.60;43.91;101727.41;5037381;28;45597;-74
2023/12/20 15:29:28;;;;;;;;;2.25;0.75;;;;;19.52;43.66;101726.19;5038871;28;45586;-75
2023/12/20 15:31:54;;;;;;;;;2.50;1.00;;;;;19.31;43.89;101717.56;5025680;28;45364;-75
2023/12/20 15:34:20;;;;;;;;;3.50;2.25;;;;;19.39;43.96;101719.81;5037326;28;47103;-76
2023/12/20 15:36:45;;;;;;;;;3.75;2.00;;;;;19.58;43.62;101717.59;5021966;28;45369;-74
2023/12/20 15:39:14;;;;;;;;;1.00;1.00;;;;;19.50;43.67;101719.97;5041584;28;45225;-75
2023/12/20 15:41:39;;;;;;;;;2.00;2.00;;;;;19.23;44.29;101711.78;5025285;28;46961;-74
2023/12/20 15:44:05;;;;;;;;;3.75;1.25;;;;;19.24;44.66;101708.09;5042691;28;45418;-73
2023/12/20 15:46:30;;;;;;;;;2.75;2.75;;;;;19.54;44.00;101722.41;5041018;28;45427;-74
2023/12/20 15:48:56;;;;;;;;;1.00;1.00;;;;;19.50;43.71;101720.84;5035343;28;45431;-74
2023/12/20 15:51:22;;;;;;;;;2.00;2.00;;;;;19.23;44.37;101715.38;5035811;28;45410;-74
2023/12/20 15:53:47;;;;;;;;;5.00;2.00;;;;;19.39;44.05;101734.28;5035492;28;46118;-74
2023/12/20 15:56:13;;;;;;;;;1.00;1.00;;;;;19.26;44.43;101723.34;5035214;28;45242;-72
2023/12/20 15:58:38;;;;;;;;;2.00;1.00;;;;;19.02;45.31;101702.34;5036049;28;45230;-74
2023/12/20 16:01:04;;;;;;;;;4.75;1.75;;;;;19.13;45.38;101713.38;5034219;28;55193;-73
2023/12/20 16:03:29;;;;;;;;;2.50;2.50;;;;;18.92;46.16;101728.38;5034236;28;46086;-73
2023/12/20 16:05:55;;;;;;;;;3.00;2.00;;;;;18.93;46.21;101717.41;5034616;28;45798;-75
2023/12/20 16:08:21;;;;;;;;;1.50;1.00;;;;;18.98;46.03;101696.22;5034768;28;45447;-73
2023/12/20 16:10:46;;;;;;;;;0.00;0.00;;;;;19.03;45.87;101696.81;5033916;28;45406;-74
2023/12/20 16:13:11;;;;;;;;;1.00;1.00;;;;;19.19;45.75;101693.94;5032473;28;46154;-75
2023/12/20 16:15:37;;;;;;;;;3.00;2.00;;;;;19.24;45.91;101699.94;5032850;28;45330;-76
2023/12/20 16:18:05;;;;;;;;;2.00;0.75;;;;;19.13;46.00;101695.22;5034012;28;45573;-76
2023/12/20 16:20:31;;;;;;;;;4.00;4.00;;;;;19.01;46.08;101706.91;5036611;28;45460;-75
2023/12/20 16:22:56;;;;;;;;;1.00;1.00;;;;;18.98;46.35;101700.78;5027615;28;48296;-76
2023/12/20 16:25:23;;;;;;;;;1.25;1.25;;;;;19.20;45.93;101698.41;5034773;28;45597;-76
2023/12/20 16:27:48;;;;;;;;;2.00;1.50;;;;;19.10;46.13;101695.44;5035930;28;45581;-76
2023/12/20 16:30:13;;;;;;;;;1.25;1.25;;;;;19.09;46.22;101681.94;5035746;28;45577;-76
2023/12/20 16:32:39;;;;;;;;;1.50;1.00;;;;;18.85;46.86;101685.31;5036820;28;46612;-76
2023/12/20 16:35:04;;;;;;;;;1.00;1.00;;;;;19.12;46.41;101676.31;5037270;28;50564;-73
2023/12/20 16:37:30;;;;;;;;;5.50;2.75;;;;;19.00;46.43;101668.94;5037579;28;45435;-76
2023/12/20 16:39:55;;;;;;;;;2.75;1.00;;;;;18.77;46.72;101665.91;5037210;28;45252;-75
2023/12/20 16:42:20;;;;;;;;;2.50;2.00;;;;;19.08;46.35;101664.75;5049141;28;46605;-74
2023/12/20 16:44:46;;;;;;;;;2.00;2.00;;;;;18.97;46.30;101661.88;5037456;28;45476;-75
2023/12/20 16:47:11;;;;;;;;;3.75;1.00;;;;;18.91;46.03;101645.97;5036380;28;45281;-76
2023/12/20 16:49:36;;;;;;;;;1.00;1.00;;;;;18.84;46.58;101647.38;5036983;28;45285;-75